Time;durP1;ratioP1;P1;durP2;ratioP2;P2;SDS_P1;SDS_P2;PMS_P1;PMS_P2;Temp;Humidity;BMP_temperature;BMP_pressure;BME280_temperature;BME280_humidity;BME280_pressure;Samples;Min_cycle;Max_cycle;Signal;HPM_P1;HPM_P2
2021/04/09 00:01:06;;;;;;;1.70;1.60;;;3.70;91.00;;;;;;5007879;28;20468;-78
2021/04/09 00:03:34;;;;;;;1.57;1.40;;;3.70;91.20;;;;;;5027819;28;20456;-77
2021/04/09 00:06:00;;;;;;;1.57;1.40;;;3.70;91.30;;;;;;5009447;28;20590;-78
2021/04/09 00:08:27;;;;;;;1.60;1.50;;;3.70;90.90;;;;;;5027050;28;20464;-77
2021/04/09 00:10:53;;;;;;;1.53;1.30;;;3.70;91.20;;;;;;5010785;28;20455;-78
2021/04/09 00:13:19;;;;;;;1.60;1.47;;;3.80;91.30;;;;;;5036002;28;20527;-78
2021/04/09 00:15:46;;;;;;;1.60;1.40;;;3.80;91.20;;;;;;5013534;28;20464;-76
2021/04/09 00:18:12;;;;;;;1.60;1.50;;;3.80;91.20;;;;;;5030096;28;20533;-77
2021/04/09 00:20:40;;;;;;;1.60;1.40;;;3.70;91.20;;;;;;5016947;28;20483;-79
2021/04/09 00:23:06;;;;;;;1.60;1.30;;;3.70;91.30;;;;;;5027144;28;20533;-77
2021/04/09 00:25:33;;;;;;;1.60;1.50;;;3.70;91.40;;;;;;5007362;28;20500;-76
2021/04/09 00:27:59;;;;;;;1.57;1.40;;;3.70;91.30;;;;;;5025664;28;20486;-77
2021/04/09 00:30:27;;;;;;;1.60;1.50;;;3.70;91.60;;;;;;5013035;28;20581;-75
2021/04/09 00:32:54;;;;;;;1.60;1.50;;;3.70;91.30;;;;;;5017810;28;20884;-75
2021/04/09 00:35:21;;;;;;;1.60;1.43;;;3.70;91.30;;;;;;5011186;28;20470;-75
2021/04/09 00:37:50;;;;;;;1.60;1.40;;;3.70;91.50;;;;;;5018833;28;20555;-77
2021/04/09 00:40:17;;;;;;;1.63;1.53;;;3.70;91.40;;;;;;5010384;28;20549;-76
2021/04/09 00:42:43;;;;;;;1.60;1.40;;;3.70;91.60;;;;;;5013968;28;20479;-76
2021/04/09 00:45:11;;;;;;;1.60;1.40;;;3.70;91.60;;;;;;5009051;28;20464;-75
2021/04/09 00:47:38;;;;;;;1.57;1.43;;;3.70;92.30;;;;;;5016896;28;20501;-76
2021/04/09 00:50:05;;;;;;;1.60;1.40;;;3.60;92.10;;;;;;5019724;28;20484;-74
2021/04/09 00:52:34;;;;;;;1.60;1.40;;;3.60;91.70;;;;;;4996913;28;20559;-74
2021/04/09 00:55:03;;;;;;;1.60;1.40;;;3.60;91.90;;;;;;5008478;28;20472;-75
2021/04/09 00:57:30;;;;;;;1.60;1.50;;;3.60;92.00;;;;;;5021125;28;21052;-76
2021/04/09 00:59:56;;;;;;;1.60;1.50;;;3.60;91.70;;;;;;5012821;28;20516;-75
2021/04/09 01:02:23;;;;;;;1.50;1.40;;;3.50;92.30;;;;;;5011932;28;20553;-76
2021/04/09 01:04:49;;;;;;;1.60;1.40;;;3.50;92.40;;;;;;5009980;28;20969;-75
2021/04/09 01:07:16;;;;;;;1.60;1.50;;;3.50;92.20;;;;;;5012313;28;20486;-74
2021/04/09 01:09:43;;;;;;;1.57;1.40;;;3.50;92.40;;;;;;5009552;28;20541;-74
2021/04/09 01:12:11;;;;;;;1.57;1.40;;;3.50;92.40;;;;;;5018008;28;20482;-76
2021/04/09 01:14:38;;;;;;;1.57;1.37;;;3.50;92.50;;;;;;5015873;28;20474;-76
2021/04/09 01:17:09;;;;;;;1.57;1.40;;;3.50;92.30;;;;;;5004033;28;20564;-75
2021/04/09 01:20:09;;;;;;;1.60;1.40;;;3.50;92.70;;;;;;5011780;28;20568;-76
2021/04/09 01:22:45;;;;;;;1.60;1.50;;;3.50;92.70;;;;;;4975861;28;20901;-74
2021/04/09 01:25:33;;;;;;;1.57;1.40;;;3.50;92.70;;;;;;5006001;28;20456;-74
2021/04/09 01:28:12;;;;;;;1.60;1.50;;;3.50;92.30;;;;;;5009716;28;20796;-75
2021/04/09 01:30:52;;;;;;;1.60;1.50;;;3.50;92.30;;;;;;5020442;28;20482;-74
2021/04/09 01:33:22;;;;;;;1.60;1.33;;;3.50;92.70;;;;;;5001254;28;20566;-75
2021/04/09 01:35:52;;;;;;;1.67;1.57;;;3.50;92.80;;;;;;4996732;28;20773;-74
2021/04/09 01:38:21;;;;;;;1.60;1.40;;;3.50;92.30;;;;;;5018928;28;20582;-75
2021/04/09 01:40:49;;;;;;;1.50;1.30;;;3.50;92.20;;;;;;4998280;28;20480;-74
2021/04/09 01:43:17;;;;;;;1.70;1.60;;;3.50;92.10;;;;;;5027033;28;20978;-75
2021/04/09 01:45:44;;;;;;;1.60;1.40;;;3.50;92.40;;;;;;5012839;28;20471;-75
2021/04/09 01:48:12;;;;;;;1.60;1.50;;;3.50;92.10;;;;;;5017934;28;20857;-75
2021/04/09 01:50:41;;;;;;;1.60;1.50;;;3.50;92.00;;;;;;5018751;28;20492;-74
2021/04/09 01:53:09;;;;;;;1.57;1.43;;;3.50;91.70;;;;;;4999230;28;21007;-74
2021/04/09 01:55:39;;;;;;;1.60;1.40;;;3.50;92.00;;;;;;4990953;28;20874;-74
2021/04/09 01:58:06;;;;;;;1.60;1.40;;;3.50;91.90;;;;;;5013693;28;20544;-77
2021/04/09 02:00:33;;;;;;;1.57;1.40;;;3.50;91.80;;;;;;5014022;28;20641;-75
2021/04/09 02:03:00;;;;;;;1.53;1.40;;;3.50;92.10;;;;;;5020183;28;20487;-77
2021/04/09 02:05:29;;;;;;;1.60;1.40;;;3.60;91.90;;;;;;5016197;28;20847;-76
2021/04/09 02:07:57;;;;;;;1.50;1.40;;;3.60;91.90;;;;;;5022850;28;20482;-77
2021/04/09 02:10:24;;;;;;;1.57;1.40;;;3.60;91.80;;;;;;5014423;28;20861;-76
2021/04/09 02:12:52;;;;;;;1.60;1.40;;;3.60;91.90;;;;;;5018673;28;20487;-76
2021/04/09 02:15:21;;;;;;;1.53;1.30;;;3.60;91.70;;;;;;5010417;28;20974;-75
2021/04/09 02:17:48;;;;;;;1.60;1.50;;;3.60;91.80;;;;;;5012175;28;20532;-76
2021/04/09 02:20:17;;;;;;;1.53;1.40;;;3.60;91.50;;;;;;5011526;28;20484;-74
2021/04/09 02:22:44;;;;;;;1.60;1.40;;;3.60;91.70;;;;;;5018669;28;20583;-75
2021/04/09 02:25:13;;;;;;;1.57;1.40;;;3.60;91.60;;;;;;5003116;28;20472;-76
2021/04/09 02:27:39;;;;;;;1.57;1.40;;;3.60;91.90;;;;;;5019505;28;20478;-76
2021/04/09 02:30:07;;;;;;;1.60;1.40;;;3.60;91.70;;;;;;5011362;28;20487;-76
2021/04/09 02:32:34;;;;;;;1.57;1.30;;;3.60;91.60;;;;;;5020528;28;21159;-74
2021/04/09 02:35:00;;;;;;;1.57;1.40;;;3.60;91.80;;;;;;5003148;28;20843;-76
2021/04/09 02:37:27;;;;;;;1.83;1.73;;;3.60;91.70;;;;;;5016637;28;20533;-75
2021/04/09 02:39:56;;;;;;;1.60;1.50;;;3.60;91.70;;;;;;5012768;28;20496;-75
2021/04/09 02:42:24;;;;;;;1.60;1.50;;;3.60;91.80;;;;;;5016717;28;20988;-75
2021/04/09 02:44:53;;;;;;;1.60;1.40;;;3.60;91.90;;;;;;5015918;28;20472;-75
2021/04/09 02:47:23;;;;;;;1.57;1.30;;;3.60;91.90;;;;;;5011755;28;20510;-75
2021/04/09 02:49:58;;;;;;;1.60;1.47;;;3.70;92.20;;;;;;5011511;28;20483;-77
2021/04/09 02:52:30;;;;;;;1.60;1.40;;;3.70;92.10;;;;;;5014528;28;20868;-76
2021/04/09 02:54:59;;;;;;;1.53;1.30;;;3.70;91.80;;;;;;5015424;28;21139;-75
2021/04/09 02:57:29;;;;;;;1.60;1.47;;;3.70;91.90;;;;;;5020103;28;20489;-76
2021/04/09 02:59:57;;;;;;;1.53;1.30;;;3.60;92.20;;;;;;5012514;28;20483;-74
2021/04/09 03:02:25;;;;;;;1.57;1.40;;;3.60;92.20;;;;;;5007323;28;20483;-76
2021/04/09 03:04:52;;;;;;;1.60;1.50;;;3.60;92.50;;;;;;5014188;28;20465;-74
2021/04/09 03:07:19;;;;;;;1.60;1.40;;;3.60;92.30;;;;;;5014268;28;20482;-74
2021/04/09 03:09:45;;;;;;;1.60;1.43;;;3.60;92.50;;;;;;5010136;28;20481;-74
2021/04/09 03:12:14;;;;;;;1.60;1.50;;;3.60;92.50;;;;;;5015297;28;20568;-76
2021/04/09 03:14:42;;;;;;;1.60;1.40;;;3.60;92.50;;;;;;5015702;28;20484;-76
2021/04/09 03:17:14;;;;;;;1.53;1.30;;;3.60;92.30;;;;;;5015553;28;20524;-75
2021/04/09 03:19:40;;;;;;;1.60;1.40;;;3.60;92.70;;;;;;5007502;28;20565;-76
2021/04/09 03:22:11;;;;;;;1.60;1.40;;;3.60;92.50;;;;;;5012087;28;20482;-75
2021/04/09 03:24:38;;;;;;;4.20;4.00;;;3.60;92.70;;;;;;5007785;28;20536;-76
2021/04/09 03:27:07;;;;;;;1.60;1.40;;;3.60;92.80;;;;;;5014078;28;20483;-75
2021/04/09 03:29:34;;;;;;;1.60;1.40;;;3.60;92.80;;;;;;5006070;28;20484;-77
2021/04/09 03:32:01;;;;;;;1.60;1.40;;;3.60;92.80;;;;;;5011434;28;20962;-79
2021/04/09 03:34:27;;;;;;;1.60;1.50;;;3.60;92.70;;;;;;5019006;28;20461;-78
2021/04/09 03:36:54;;;;;;;1.60;1.47;;;3.60;92.70;;;;;;5006625;28;20512;-78
2021/04/09 03:39:20;;;;;;;1.70;1.60;;;3.60;92.60;;;;;;5026605;28;20559;-79
2021/04/09 03:41:46;;;;;;;1.57;1.40;;;3.60;92.70;;;;;;5002360;28;20544;-78
2021/04/09 03:44:12;;;;;;;1.57;1.40;;;3.60;92.40;;;;;;5028129;28;20468;-78
2021/04/09 03:46:39;;;;;;;1.57;1.40;;;3.60;92.80;;;;;;5010652;28;20494;-78
2021/04/09 03:49:06;;;;;;;1.50;1.40;;;3.60;92.50;;;;;;5024181;28;20480;-78
2021/04/09 03:51:32;;;;;;;1.50;1.40;;;3.60;92.60;;;;;;5010041;28;21020;-80
2021/04/09 03:53:59;;;;;;;1.57;1.40;;;3.60;92.40;;;;;;5031241;28;20471;-77
2021/04/09 03:56:25;;;;;;;1.57;1.40;;;3.60;92.40;;;;;;5015043;28;20494;-78
2021/04/09 03:58:51;;;;;;;1.57;1.40;;;3.60;92.50;;;;;;5025026;28;20492;-79
2021/04/09 04:01:18;;;;;;;1.60;1.50;;;3.70;92.50;;;;;;5012454;28;20474;-77
2021/04/09 04:03:47;;;;;;;1.57;1.40;;;3.70;92.50;;;;;;5013738;28;20578;-78
2021/04/09 04:06:15;;;;;;;1.60;1.50;;;3.70;92.40;;;;;;5010938;28;20521;-76
2021/04/09 04:08:42;;;;;;;1.83;1.73;;;3.70;92.40;;;;;;5034795;28;20465;-79
2021/04/09 04:11:08;;;;;;;1.57;1.40;;;3.70;92.40;;;;;;5003257;28;20638;-78
2021/04/09 04:13:35;;;;;;;1.57;1.40;;;3.70;92.50;;;;;;5028086;28;20466;-79
2021/04/09 04:16:01;;;;;;;1.53;1.40;;;3.70;92.40;;;;;;5000978;28;20550;-79
2021/04/09 04:18:28;;;;;;;1.50;1.37;;;3.70;92.40;;;;;;5014732;28;20492;-78
2021/04/09 04:20:54;;;;;;;1.57;1.40;;;3.80;92.30;;;;;;4997974;28;20916;-76
2021/04/09 04:23:21;;;;;;;1.60;1.50;;;3.80;92.30;;;;;;5034681;28;20474;-78
2021/04/09 04:25:47;;;;;;;1.57;1.30;;;3.80;92.20;;;;;;5006278;28;20959;-78
2021/04/09 04:28:14;;;;;;;1.50;1.40;;;3.80;92.00;;;;;;5030935;28;20786;-80
2021/04/09 04:30:41;;;;;;;1.60;1.40;;;3.80;92.20;;;;;;5010932;28;20479;-78
2021/04/09 04:33:07;;;;;;;1.60;1.50;;;3.90;92.00;;;;;;5016514;28;20579;-79
2021/04/09 04:35:34;;;;;;;1.60;1.40;;;3.90;92.20;;;;;;5011788;28;20520;-77
2021/04/09 04:38:00;;;;;;;1.57;1.40;;;3.90;92.10;;;;;;5018773;28;20982;-81
2021/04/09 04:40:27;;;;;;;1.60;1.40;;;3.90;92.00;;;;;;5015950;28;20588;-78
2021/04/09 04:42:54;;;;;;;1.60;1.40;;;3.90;91.80;;;;;;5013332;28;20494;-79
2021/04/09 04:45:20;;;;;;;1.57;1.40;;;3.90;91.90;;;;;;5012700;28;20823;-77
2021/04/09 04:47:46;;;;;;;1.50;1.30;;;3.90;92.00;;;;;;5022975;28;20484;-78
2021/04/09 04:50:13;;;;;;;1.53;1.30;;;3.90;92.00;;;;;;5018435;28;21033;-79
2021/04/09 04:52:39;;;;;;;1.60;1.50;;;3.90;91.90;;;;;;5026364;28;20520;-78
2021/04/09 04:55:06;;;;;;;1.53;1.40;;;4.00;91.90;;;;;;5015140;28;20466;-76
2021/04/09 04:57:34;;;;;;;1.60;1.50;;;4.00;91.90;;;;;;5018834;28;20536;-79
2021/04/09 05:00:00;;;;;;;1.53;1.40;;;4.00;92.00;;;;;;5021039;28;20570;-77
2021/04/09 05:02:26;;;;;;;1.53;1.40;;;4.00;92.20;;;;;;5014866;28;20486;-77
2021/04/09 05:04:53;;;;;;;1.63;1.53;;;4.00;92.20;;;;;;5013953;28;20476;-76
2021/04/09 05:07:19;;;;;;;1.60;1.40;;;3.90;92.30;;;;;;5016588;28;20879;-76
2021/04/09 05:09:45;;;;;;;1.60;1.50;;;4.00;92.20;;;;;;5020684;28;20800;-78
2021/04/09 05:12:12;;;;;;;1.53;1.40;;;4.00;92.10;;;;;;5013801;28;20487;-75
2021/04/09 05:14:39;;;;;;;1.60;1.40;;;4.00;92.20;;;;;;5017941;28;20529;-77
2021/04/09 05:17:05;;;;;;;1.57;1.40;;;4.00;92.20;;;;;;5014180;28;20505;-75
2021/04/09 05:19:31;;;;;;;1.53;1.30;;;4.00;92.30;;;;;;5019798;28;20495;-77
2021/04/09 05:21:58;;;;;;;1.53;1.40;;;4.10;92.00;;;;;;5011097;28;20770;-78
2021/04/09 05:24:24;;;;;;;1.57;1.40;;;4.10;92.20;;;;;;5018144;28;20472;-76
2021/04/09 05:26:50;;;;;;;1.57;1.40;;;4.20;92.00;;;;;;5014278;28;20475;-75
2021/04/09 05:29:17;;;;;;;1.53;1.40;;;4.20;91.90;;;;;;5021980;28;20515;-74
2021/04/09 05:31:44;;;;;;;1.53;1.30;;;4.20;92.00;;;;;;5009068;28;20482;-79
2021/04/09 05:34:10;;;;;;;1.50;1.30;;;4.30;91.70;;;;;;5027275;28;20679;-76
2021/04/09 05:36:36;;;;;;;1.60;1.43;;;4.30;91.60;;;;;;5009379;28;20490;-76
2021/04/09 05:39:03;;;;;;;1.57;1.30;;;4.40;91.60;;;;;;5027712;28;20488;-76
2021/04/09 05:41:29;;;;;;;1.53;1.40;;;4.40;91.40;;;;;;5004843;28;20997;-76
2021/04/09 05:43:56;;;;;;;1.60;1.40;;;4.50;91.30;;;;;;5025786;28;20530;-77
2021/04/09 05:46:22;;;;;;;1.60;1.40;;;4.50;91.20;;;;;;5015182;28;20490;-76
2021/04/09 05:48:49;;;;;;;1.60;1.30;;;4.60;91.00;;;;;;5035815;28;20853;-78
2021/04/09 05:51:15;;;;;;;1.57;1.40;;;4.70;90.90;;;;;;5004362;28;20482;-79
2021/04/09 05:53:43;;;;;;;1.57;1.37;;;4.70;90.70;;;;;;5029953;28;20468;-78
2021/04/09 05:56:09;;;;;;;1.50;1.30;;;4.80;90.70;;;;;;5010327;28;20526;-77
2021/04/09 05:58:36;;;;;;;1.60;1.40;;;4.90;90.50;;;;;;5024210;28;20495;-77
2021/04/09 06:01:02;;;;;;;1.57;1.30;;;4.90;90.60;;;;;;5003936;28;20956;-76
2021/04/09 06:03:28;;;;;;;1.53;1.30;;;5.00;90.30;;;;;;5030648;28;20464;-78
2021/04/09 06:05:55;;;;;;;1.60;1.40;;;5.10;90.10;;;;;;5001654;28;20460;-79
2021/04/09 06:08:22;;;;;;;1.57;1.30;;;5.20;90.20;;;;;;5033714;28;20456;-77
2021/04/09 06:10:48;;;;;;;1.60;1.40;;;5.20;89.80;;;;;;4999230;28;20488;-79
2021/04/09 06:13:16;;;;;;;1.53;1.30;;;5.30;89.80;;;;;;5031154;28;20460;-76
2021/04/09 06:15:42;;;;;;;1.60;1.40;;;5.40;89.80;;;;;;5003372;28;20535;-78
2021/04/09 06:18:09;;;;;;;1.50;1.30;;;5.50;89.70;;;;;;5018451;28;20488;-77
2021/04/09 06:20:36;;;;;;;1.57;1.30;;;5.60;89.60;;;;;;5012140;28;20487;-77
2021/04/09 06:23:06;;;;;;;1.57;1.30;;;5.60;89.50;;;;;;5018906;28;20974;-75
2021/04/09 06:25:32;;;;;;;1.57;1.30;;;5.70;89.10;;;;;;5007433;28;20499;-76
2021/04/09 06:27:59;;;;;;;1.60;1.30;;;5.80;89.20;;;;;;5016357;28;20585;-76
2021/04/09 06:30:25;;;;;;;1.57;1.30;;;5.90;89.10;;;;;;5010978;28;20475;-77
2021/04/09 06:32:52;;;;;;;1.57;1.30;;;6.00;89.00;;;;;;5013768;28;20487;-77
2021/04/09 06:35:18;;;;;;;1.50;1.23;;;6.00;88.70;;;;;;5014398;28;20905;-76
2021/04/09 06:37:45;;;;;;;1.57;1.30;;;6.10;88.60;;;;;;5016356;28;21056;-76
2021/04/09 06:40:15;;;;;;;1.50;1.23;;;6.20;88.50;;;;;;5011721;28;20507;-76
2021/04/09 06:42:44;;;;;;;1.57;1.30;;;6.20;88.50;;;;;;5009706;28;20478;-77
2021/04/09 06:45:12;;;;;;;1.57;1.30;;;6.30;88.20;;;;;;5010909;28;20560;-77
2021/04/09 06:47:39;;;;;;;1.60;1.50;;;6.40;88.30;;;;;;5014107;28;20487;-76
2021/04/09 06:50:13;;;;;;;1.60;1.20;;;6.50;87.90;;;;;;5008072;28;20872;-77
2021/04/09 06:52:39;;;;;;;1.50;1.20;;;6.60;87.50;;;;;;5012515;28;20487;-75
2021/04/09 06:55:07;;;;;;;1.53;1.30;;;6.70;87.80;;;;;;5008945;28;20468;-76
2021/04/09 06:57:35;;;;;;;1.57;1.30;;;6.90;87.20;;;;;;5010350;28;20471;-77
2021/04/09 07:00:07;;;;;;;1.50;1.20;;;7.00;87.30;;;;;;4999884;28;20493;-78
2021/04/09 07:02:36;;;;;;;1.50;1.20;;;7.20;86.80;;;;;;5007906;28;20526;-78
2021/04/09 07:05:03;;;;;;;1.50;1.20;;;7.30;85.50;;;;;;5007857;28;20476;-75
2021/04/09 07:07:52;;;;;;;1.60;1.23;;;7.40;86.10;;;;;;5009964;28;20553;-78
2021/04/09 07:10:21;;;;;;;1.57;1.30;;;7.50;85.50;;;;;;5012969;28;21016;-76
2021/04/09 07:13:03;;;;;;;1.50;1.20;;;7.60;85.10;;;;;;5016083;28;20519;-75
2021/04/09 07:15:37;;;;;;;1.50;1.30;;;7.60;85.10;;;;;;5005025;28;20456;-78
2021/04/09 07:18:06;;;;;;;1.57;1.23;;;7.70;85.10;;;;;;5011892;28;20585;-76
2021/04/09 07:20:45;;;;;;;1.57;1.30;;;7.80;84.70;;;;;;5013321;28;20587;-77
2021/04/09 07:23:13;;;;;;;1.57;1.30;;;7.90;84.70;;;;;;5002555;28;20501;-76
2021/04/09 07:25:42;;;;;;;1.57;1.30;;;8.00;84.60;;;;;;5012198;28;20972;-76
2021/04/09 07:28:13;;;;;;;1.53;1.20;;;8.00;84.30;;;;;;5020873;28;20484;-76
2021/04/09 07:30:49;;;;;;;1.53;1.10;;;8.10;84.20;;;;;;5020504;28;20485;-78
2021/04/09 07:33:21;;;;;;;1.60;1.33;;;8.20;84.20;;;;;;5003899;28;20484;-78
2021/04/09 07:35:55;;;;;;;1.53;1.20;;;8.20;84.00;;;;;;5007201;28;20526;-74
2021/04/09 07:38:57;;;;;;;1.60;1.30;;;8.30;83.70;;;;;;5025893;28;20492;-75
2021/04/09 07:41:40;;;;;;;1.50;1.20;;;8.30;84.10;;;;;;4999095;28;20487;-75
2021/04/09 07:44:18;;;;;;;1.57;1.10;;;8.40;84.40;;;;;;5017227;28;20460;-74
2021/04/09 07:46:55;;;;;;;1.60;1.40;;;8.60;84.10;;;;;;5014769;28;20484;-75
2021/04/09 07:49:27;;;;;;;1.53;1.20;;;8.70;83.90;;;;;;5018170;28;20526;-77
2021/04/09 07:52:09;;;;;;;1.50;1.10;;;8.80;83.80;;;;;;5007782;28;20541;-77
2021/04/09 07:54:49;;;;;;;1.50;1.10;;;8.90;83.50;;;;;;5012388;28;20470;-74
2021/04/09 07:57:34;;;;;;;1.53;1.10;;;9.10;83.70;;;;;;5017442;28;20499;-78
2021/04/09 08:00:01;;;;;;;1.50;1.10;;;9.20;82.60;;;;;;5011526;28;20519;-78
2021/04/09 08:02:49;;;;;;;1.50;1.10;;;9.40;81.90;;;;;;5024526;28;20570;-75
2021/04/09 08:05:26;;;;;;;1.50;1.10;;;9.40;81.40;;;;;;5012684;28;20463;-76
2021/04/09 08:08:11;;;;;;;1.60;1.20;;;9.50;81.70;;;;;;5018826;28;20484;-77
2021/04/09 08:10:42;;;;;;;1.50;1.10;;;9.60;80.80;;;;;;5016050;28;20575;-79
2021/04/09 08:13:09;;;;;;;1.50;1.07;;;9.80;80.60;;;;;;5016968;28;20567;-76
2021/04/09 08:15:36;;;;;;;1.50;1.10;;;9.90;80.10;;;;;;5018477;28;20471;-76
2021/04/09 08:18:04;;;;;;;1.53;1.20;;;10.00;79.50;;;;;;5000449;28;20862;-77
2021/04/09 08:20:34;;;;;;;1.53;1.10;;;10.20;80.30;;;;;;5010839;28;21102;-77
2021/04/09 08:23:05;;;;;;;1.50;1.20;;;10.30;79.60;;;;;;4996993;28;20503;-76
2021/04/09 08:25:34;;;;;;;1.50;1.10;;;10.50;78.70;;;;;;5011107;28;20460;-76
2021/04/09 08:28:01;;;;;;;1.50;1.10;;;10.60;78.40;;;;;;5010616;28;20583;-76
2021/04/09 08:30:29;;;;;;;1.57;1.10;;;10.80;78.80;;;;;;5012307;28;20553;-76
2021/04/09 08:32:58;;;;;;;1.50;1.00;;;11.00;79.10;;;;;;5018182;28;20557;-76
2021/04/09 08:35:26;;;;;;;1.60;1.10;;;11.30;78.90;;;;;;5005780;28;20464;-76
2021/04/09 08:37:53;;;;;;;1.50;1.00;;;11.50;77.80;;;;;;5011688;28;21001;-77
2021/04/09 08:40:20;;;;;;;1.50;1.00;;;11.70;77.60;;;;;;5012686;28;20869;-77
2021/04/09 08:42:47;;;;;;;1.53;1.00;;;11.90;77.30;;;;;;5022836;28;21039;-77
2021/04/09 08:45:15;;;;;;;1.57;1.10;;;12.20;77.10;;;;;;5010348;28;20477;-77
2021/04/09 08:47:42;;;;;;;1.53;1.00;;;12.40;76.80;;;;;;5013048;28;20487;-77
2021/04/09 08:50:11;;;;;;;1.50;1.00;;;12.60;74.50;;;;;;5018314;28;20869;-77
2021/04/09 08:52:41;;;;;;;1.50;1.00;;;12.90;75.40;;;;;;4999000;28;20546;-77
2021/04/09 08:55:09;;;;;;;1.60;1.10;;;13.10;75.50;;;;;;5013762;28;20463;-76
2021/04/09 08:57:37;;;;;;;1.50;1.00;;;13.30;74.40;;;;;;5016941;28;20960;-77
2021/04/09 09:00:14;;;;;;;1.50;1.00;;;13.50;74.00;;;;;;5014492;28;20873;-78
2021/04/09 09:02:46;;;;;;;1.50;1.00;;;13.70;74.30;;;;;;4993386;28;20472;-78
2021/04/09 09:05:15;;;;;;;1.50;1.10;;;13.90;72.90;;;;;;5012117;28;20463;-78
2021/04/09 09:07:57;;;;;;;1.50;1.00;;;13.90;72.40;;;;;;4995357;28;21188;-78
2021/04/09 09:10:57;;;;;;;1.50;0.90;;;13.90;71.40;;;;;;5004433;28;20535;-78
2021/04/09 09:13:25;;;;;;;1.50;1.00;;;14.00;70.90;;;;;;5004151;28;20475;-79
2021/04/09 09:16:16;;;;;;;1.50;0.90;;;14.10;71.50;;;;;;5002772;28;20474;-77
2021/04/09 09:18:50;;;;;;;1.50;1.00;;;14.10;70.60;;;;;;5004567;28;20523;-79
2021/04/09 09:21:36;;;;;;;1.50;1.00;;;14.20;70.90;;;;;;4997111;28;20494;-76
2021/04/09 09:24:06;;;;;;;1.50;1.00;;;14.20;71.50;;;;;;5018093;28;20887;-77
2021/04/09 09:26:35;;;;;;;1.50;1.07;;;14.30;70.90;;;;;;5002289;28;21058;-78
2021/04/09 09:29:16;;;;;;;1.50;1.00;;;14.50;70.60;;;;;;5018447;28;20544;-77
2021/04/09 09:31:54;;;;;;;1.57;1.00;;;14.60;70.60;;;;;;5006624;28;20829;-77
2021/04/09 09:34:44;;;;;;;1.50;1.03;;;14.80;70.80;;;;;;5016033;28;20475;-77
2021/04/09 09:37:18;;;;;;;1.50;1.00;;;15.00;70.20;;;;;;4995615;28;20512;-77
2021/04/09 09:39:50;;;;;;;1.50;1.00;;;15.10;70.10;;;;;;5008343;28;20487;-78
2021/04/09 09:42:42;;;;;;;1.50;1.00;;;15.10;68.40;;;;;;5015821;28;20895;-78
2021/04/09 09:45:11;;;;;;;1.50;1.00;;;15.00;67.90;;;;;;5015357;28;20548;-79
2021/04/09 09:47:39;;;;;;;1.50;1.00;;;15.00;69.10;;;;;;5014757;28;20483;-79
2021/04/09 09:50:13;;;;;;;1.50;0.93;;;15.10;67.80;;;;;;5017569;28;20883;-76
2021/04/09 09:52:42;;;;;;;1.60;1.40;;;15.20;68.50;;;;;;5010405;28;20478;-79
2021/04/09 09:55:15;;;;;;;1.50;0.90;;;15.40;68.40;;;;;;5016394;28;20456;-79
2021/04/09 09:57:49;;;;;;;1.50;1.00;;;15.60;67.80;;;;;;5018909;28;20888;-77
2021/04/09 10:00:24;;;;;;;1.50;0.90;;;15.80;67.90;;;;;;5015233;28;20570;-77
2021/04/09 10:02:50;;;;;;;1.50;1.00;;;15.80;67.00;;;;;;5015874;28;20566;-77
2021/04/09 10:05:18;;;;;;;1.50;1.00;;;15.80;67.30;;;;;;5019368;28;20836;-78
2021/04/09 10:07:45;;;;;;;1.50;0.90;;;15.70;66.70;;;;;;5016535;28;20531;-78
2021/04/09 10:10:12;;;;;;;1.50;1.00;;;15.60;67.20;;;;;;5013818;28;20527;-76
2021/04/09 10:12:39;;;;;;;1.50;0.90;;;15.50;67.50;;;;;;5030493;28;20517;-77
2021/04/09 10:15:06;;;;;;;1.50;1.00;;;15.50;68.10;;;;;;5020060;28;20839;-78
2021/04/09 10:17:32;;;;;;;1.50;0.90;;;15.60;68.20;;;;;;5006401;28;20502;-78
2021/04/09 10:20:05;;;;;;;1.50;0.90;;;15.50;67.60;;;;;;5012768;28;20570;-78
2021/04/09 10:22:32;;;;;;;1.50;1.00;;;15.60;67.90;;;;;;5021537;28;20561;-79
2021/04/09 10:24:59;;;;;;;1.50;1.00;;;15.60;67.50;;;;;;5014806;28;20495;-78
2021/04/09 10:27:25;;;;;;;1.50;0.90;;;15.60;67.50;;;;;;5014604;28;20544;-78
2021/04/09 10:29:52;;;;;;;1.47;0.90;;;15.50;68.20;;;;;;5008873;28;20485;-78
2021/04/09 10:32:20;;;;;;;1.50;0.90;;;15.50;69.10;;;;;;5009709;28;21025;-77
2021/04/09 10:34:48;;;;;;;1.50;0.90;;;15.60;68.00;;;;;;5014386;28;21037;-78
2021/04/09 10:37:22;;;;;;;1.50;0.90;;;15.60;67.50;;;;;;5022581;28;20483;-78
2021/04/09 10:39:48;;;;;;;1.50;0.90;;;15.60;67.70;;;;;;5009205;28;20492;-78
2021/04/09 10:42:16;;;;;;;1.50;1.00;;;15.60;68.00;;;;;;5016628;28;20564;-76
2021/04/09 10:44:42;;;;;;;1.50;1.00;;;15.80;68.10;;;;;;5020503;28;20535;-77
2021/04/09 10:47:09;;;;;;;1.50;1.00;;;16.00;68.30;;;;;;5009442;28;20805;-78
2021/04/09 10:49:37;;;;;;;1.50;0.93;;;16.10;67.60;;;;;;5017222;28;20856;-77
2021/04/09 10:52:05;;;;;;;1.50;1.00;;;16.30;66.90;;;;;;5019025;28;20505;-77
2021/04/09 10:54:35;;;;;;;1.50;1.00;;;16.30;67.10;;;;;;5017835;28;20551;-76
2021/04/09 10:57:03;;;;;;;1.50;0.90;;;16.20;66.60;;;;;;5003593;28;20478;-76
2021/04/09 10:59:32;;;;;;;1.50;0.90;;;16.20;67.60;;;;;;5021503;28;20574;-77
2021/04/09 11:02:00;;;;;;;1.50;0.90;;;16.20;67.30;;;;;;5010363;28;20570;-77
2021/04/09 11:04:29;;;;;;;1.50;0.90;;;16.20;67.60;;;;;;5018473;28;20468;-77
2021/04/09 11:06:58;;;;;;;1.57;1.20;;;16.00;67.40;;;;;;5010845;28;20560;-76
2021/04/09 11:09:37;;;;;;;1.50;0.90;;;16.00;68.20;;;;;;5019248;28;20569;-77
2021/04/09 11:12:16;;;;;;;1.50;0.90;;;16.00;67.30;;;;;;5011152;28;20489;-77
2021/04/09 11:14:43;;;;;;;1.50;1.00;;;16.00;68.20;;;;;;5022924;28;20460;-78
2021/04/09 11:17:20;;;;;;;1.50;1.00;;;16.10;68.30;;;;;;5010201;28;20491;-78
2021/04/09 11:19:47;;;;;;;1.50;0.90;;;16.00;68.10;;;;;;5016910;28;20490;-77
2021/04/09 11:22:17;;;;;;;1.50;0.90;;;16.20;67.80;;;;;;5013316;28;20486;-77
2021/04/09 11:24:43;;;;;;;1.50;1.00;;;16.40;67.60;;;;;;5010574;28;20464;-78
2021/04/09 11:27:20;;;;;;;1.50;0.90;;;16.60;68.00;;;;;;5004152;28;20498;-77
2021/04/09 11:29:48;;;;;;;1.50;0.90;;;16.60;67.40;;;;;;5013394;28;21106;-77
2021/04/09 11:32:17;;;;;;;1.50;0.90;;;16.60;66.80;;;;;;5018206;28;20527;-77
2021/04/09 11:34:46;;;;;;;1.50;1.00;;;16.50;66.80;;;;;;5014757;28;20543;-80
2021/04/09 11:37:13;;;;;;;1.50;1.00;;;16.40;66.70;;;;;;5016761;28;20483;-80
2021/04/09 11:39:52;;;;;;;1.50;0.93;;;16.30;67.20;;;;;;5020402;28;20494;-77
2021/04/09 11:42:27;;;;;;;1.50;0.97;;;16.20;66.50;;;;;;5018392;28;20510;-78
2021/04/09 11:44:55;;;;;;;1.50;1.00;;;16.10;67.00;;;;;;5013690;28;20456;-80
2021/04/09 11:47:25;;;;;;;1.50;0.90;;;16.00;68.20;;;;;;5011199;28;20483;-78
2021/04/09 11:50:17;;;;;;;1.50;1.00;;;16.10;67.80;;;;;;5016820;28;20574;-80
2021/04/09 11:52:54;;;;;;;1.50;0.90;;;16.10;67.40;;;;;;4991495;28;20562;-79
2021/04/09 11:55:23;;;;;;;1.50;1.00;;;16.20;67.50;;;;;;5006234;28;20532;-77
2021/04/09 11:57:49;;;;;;;1.50;0.90;;;16.20;66.80;;;;;;5014444;28;20510;-79
2021/04/09 12:00:26;;;;;;;1.50;1.00;;;16.10;66.70;;;;;;5011635;28;20589;-79
2021/04/09 12:02:53;;;;;;;1.50;1.00;;;15.90;67.50;;;;;;5009816;28;20518;-79
2021/04/09 12:05:22;;;;;;;1.50;1.00;;;15.80;67.30;;;;;;5006973;28;20921;-78
2021/04/09 12:07:49;;;;;;;1.50;1.00;;;15.80;67.80;;;;;;5015516;28;20517;-79
2021/04/09 12:10:16;;;;;;;1.50;0.90;;;15.70;67.60;;;;;;5010631;28;20547;-78
2021/04/09 12:12:43;;;;;;;1.50;1.00;;;15.80;67.60;;;;;;5022051;28;20524;-78
2021/04/09 12:15:11;;;;;;;1.50;1.00;;;15.90;67.00;;;;;;5016971;28;20471;-78
2021/04/09 12:17:38;;;;;;;1.50;1.00;;;16.00;66.90;;;;;;5022243;28;20486;-78
2021/04/09 12:20:09;;;;;;;1.50;0.90;;;16.20;66.80;;;;;;5008476;28;20493;-81
2021/04/09 12:22:35;;;;;;;1.50;0.97;;;16.60;67.00;;;;;;5014740;28;20538;-80
2021/04/09 12:25:02;;;;;;;1.50;1.00;;;16.90;66.70;;;;;;5014150;28;20885;-78
2021/04/09 12:27:28;;;;;;;1.50;1.00;;;17.20;67.00;;;;;;5016072;28;21249;-79
2021/04/09 12:29:55;;;;;;;1.47;0.90;;;17.40;65.50;;;;;;5016060;28;20494;-80
2021/04/09 12:32:21;;;;;;;1.50;0.90;;;17.50;65.20;;;;;;5003094;28;20530;-77
2021/04/09 12:34:48;;;;;;;1.50;0.90;;;17.60;64.50;;;;;;5013255;28;21027;-80
2021/04/09 12:37:14;;;;;;;1.50;0.90;;;17.70;64.50;;;;;;5008137;28;20510;-81
2021/04/09 12:39:41;;;;;;;1.50;0.97;;;17.80;64.20;;;;;;5020974;28;20493;-80
2021/04/09 12:42:09;;;;;;;1.50;0.90;;;18.00;63.90;;;;;;5019008;28;20731;-76
2021/04/09 12:44:36;;;;;;;1.50;0.90;;;18.00;65.40;;;;;;5013611;28;20994;-79
2021/04/09 12:47:03;;;;;;;1.50;0.90;;;17.80;65.40;;;;;;5008179;28;20493;-79
2021/04/09 12:49:29;;;;;;;1.50;0.90;;;17.60;65.60;;;;;;5016329;28;20526;-78
2021/04/09 12:51:57;;;;;;;1.50;0.90;;;17.40;65.90;;;;;;5002389;28;20483;-79
2021/04/09 12:54:23;;;;;;;1.50;0.90;;;17.50;66.80;;;;;;5015188;28;20851;-79
2021/04/09 12:56:50;;;;;;;1.50;0.90;;;17.60;66.40;;;;;;5003374;28;20751;-79
2021/04/09 12:59:16;;;;;;;1.50;0.90;;;17.60;65.70;;;;;;5014950;28;20502;-77
2021/04/09 13:01:43;;;;;;;1.50;1.00;;;17.50;66.80;;;;;;5007550;28;20599;-80
2021/04/09 13:04:10;;;;;;;1.50;1.00;;;17.60;66.30;;;;;;5012464;28;20476;-79